Time;durP1;ratioP1;P1;durP2;ratioP2;P2;SDS_P1;SDS_P2;PMS_P1;PMS_P2;Temp;Humidity;BMP_temperature;BMP_pressure;BME280_temperature;BME280_humidity;BME280_pressure;Samples;Min_cycle;Max_cycle;Signal;HPM_P1;HPM_P2
2023/09/15 00:00:47;;;;;;;14.23;5.82;;;;;;;;;;5028891;28;20018;-68
2023/09/15 00:03:12;;;;;;;15.75;6.07;;;;;;;;;;5025153;28;20465;-68
2023/09/15 00:05:38;;;;;;;14.13;6.45;;;;;;;;;;5020980;28;20021;-72
2023/09/15 00:08:04;;;;;;;12.68;5.93;;;;;;;;;;5023254;28;20061;-63
2023/09/15 00:10:34;;;;;;;16.25;6.68;;;;;;;;;;5028027;28;20017;-68
2023/09/15 00:12:59;;;;;;;12.85;6.55;;;;;;;;;;5029033;28;20403;-67
2023/09/15 00:15:25;;;;;;;11.88;5.57;;;;;;;;;;5028946;28;20483;-67
2023/09/15 00:17:51;;;;;;;14.73;6.03;;;;;;;;;;5033413;28;20009;-67
2023/09/15 00:20:16;;;;;;;15.00;6.30;;;;;;;;;;5032870;28;20080;-67
2023/09/15 00:22:42;;;;;;;13.80;6.45;;;;;;;;;;5033434;28;20032;-67
2023/09/15 00:25:08;;;;;;;14.13;6.10;;;;;;;;;;5029229;28;20009;-67
2023/09/15 00:27:34;;;;;;;11.27;6.65;;;;;;;;;;5032872;28;20483;-64
2023/09/15 00:29:59;;;;;;;12.80;6.18;;;;;;;;;;5032956;28;20053;-67
2023/09/15 00:32:25;;;;;;;14.43;6.32;;;;;;;;;;5029996;28;20027;-66
2023/09/15 00:34:50;;;;;;;12.75;5.88;;;;;;;;;;5014740;28;20097;-68
2023/09/15 00:37:15;;;;;;;11.63;5.75;;;;;;;;;;5033169;28;20064;-68
2023/09/15 00:39:40;;;;;;;14.23;6.60;;;;;;;;;;5025748;28;20052;-64
2023/09/15 00:42:06;;;;;;;13.70;6.32;;;;;;;;;;5027592;28;20025;-69
2023/09/15 00:44:31;;;;;;;16.05;5.75;;;;;;;;;;5035208;28;20033;-66
2023/09/15 00:46:56;;;;;;;13.38;5.90;;;;;;;;;;5032667;28;20112;-68
2023/09/15 00:49:22;;;;;;;13.38;6.88;;;;;;;;;;5031479;28;20384;-69
2023/09/15 00:51:48;;;;;;;14.95;6.47;;;;;;;;;;5025203;28;20029;-68
2023/09/15 00:54:13;;;;;;;12.88;5.60;;;;;;;;;;5032068;28;20075;-67
2023/09/15 00:56:39;;;;;;;15.13;7.22;;;;;;;;;;5031659;28;20029;-67
2023/09/15 00:59:05;;;;;;;13.32;6.72;;;;;;;;;;5032574;28;20481;-67
2023/09/15 01:01:31;;;;;;;9.93;5.57;;;;;;;;;;5031893;28;20060;-68
2023/09/15 01:03:56;;;;;;;15.05;6.10;;;;;;;;;;5027063;28;20045;-69
2023/09/15 01:06:22;;;;;;;15.52;6.47;;;;;;;;;;5029724;28;20029;-68
2023/09/15 01:08:48;;;;;;;11.15;6.28;;;;;;;;;;5027457;28;20390;-69
2023/09/15 01:11:13;;;;;;;14.27;6.53;;;;;;;;;;5028692;28;20032;-69
2023/09/15 01:13:38;;;;;;;14.85;6.38;;;;;;;;;;5025672;28;20055;-72
2023/09/15 01:16:11;;;;;;;14.45;6.47;;;;;;;;;;5025779;28;20021;-70
2023/09/15 01:18:42;;;;;;;12.68;6.57;;;;;;;;;;5032303;28;20016;-68
2023/09/15 01:21:13;;;;;;;12.82;6.68;;;;;;;;;;5026326;28;20044;-68
2023/09/15 01:23:51;;;;;;;17.60;6.47;;;;;;;;;;5013877;28;20108;-71
2023/09/15 01:26:27;;;;;;;11.90;6.05;;;;;;;;;;5030777;28;20013;-68
2023/09/15 01:29:10;;;;;;;12.73;6.28;;;;;;;;;;5027347;28;20021;-68
2023/09/15 01:31:37;;;;;;;15.98;6.53;;;;;;;;;;5028990;28;20068;-68
2023/09/15 01:34:03;;;;;;;13.23;6.63;;;;;;;;;;5031632;28;20013;-69
2023/09/15 01:36:28;;;;;;;14.02;5.97;;;;;;;;;;5027588;28;20024;-68
2023/09/15 01:38:53;;;;;;;10.95;6.05;;;;;;;;;;5031664;28;20048;-69
2023/09/15 01:41:19;;;;;;;13.18;5.78;;;;;;;;;;5026733;28;20022;-67
2023/09/15 01:43:45;;;;;;;16.63;6.07;;;;;;;;;;5034070;28;20435;-69
2023/09/15 01:46:10;;;;;;;14.38;7.00;;;;;;;;;;5025798;28;20075;-68
2023/09/15 01:48:35;;;;;;;15.23;6.95;;;;;;;;;;5030396;28;20025;-68
2023/09/15 01:51:01;;;;;;;10.27;5.65;;;;;;;;;;5023489;28;20014;-69
2023/09/15 01:53:26;;;;;;;14.43;5.93;;;;;;;;;;5028059;28;20028;-65
2023/09/15 01:55:51;;;;;;;15.55;6.70;;;;;;;;;;5021983;28;20146;-71
2023/09/15 01:58:18;;;;;;;11.98;6.22;;;;;;;;;;5025083;28;20084;-68
2023/09/15 02:00:43;;;;;;;15.38;6.93;;;;;;;;;;5023055;28;20191;-68
2023/09/15 02:03:09;;;;;;;12.00;6.70;;;;;;;;;;5030706;28;20029;-68
2023/09/15 02:05:34;;;;;;;12.57;6.35;;;;;;;;;;5027811;28;20088;-68
2023/09/15 02:07:59;;;;;;;14.52;6.70;;;;;;;;;;5013263;28;20032;-68
2023/09/15 02:10:24;;;;;;;12.75;5.50;;;;;;;;;;5027325;28;20014;-70
2023/09/15 02:12:50;;;;;;;13.73;6.30;;;;;;;;;;5024160;28;20012;-68
2023/09/15 02:15:17;;;;;;;13.80;6.40;;;;;;;;;;5025567;28;20358;-68
2023/09/15 02:17:43;;;;;;;15.57;6.18;;;;;;;;;;5030795;28;20041;-69
2023/09/15 02:20:18;;;;;;;14.48;6.25;;;;;;;;;;5024764;28;20058;-67
2023/09/15 02:22:43;;;;;;;12.18;6.70;;;;;;;;;;5024046;28;20021;-69
2023/09/15 02:25:12;;;;;;;16.42;5.80;;;;;;;;;;5021007;28;20492;-70
2023/09/15 02:27:37;;;;;;;14.48;6.45;;;;;;;;;;5028190;28;20018;-68
2023/09/15 02:30:03;;;;;;;12.77;5.78;;;;;;;;;;5024986;28;20026;-68
2023/09/15 02:32:29;;;;;;;9.95;6.15;;;;;;;;;;5029328;28;20055;-68
2023/09/15 02:34:54;;;;;;;14.18;6.30;;;;;;;;;;5010513;28;20049;-67
2023/09/15 02:37:19;;;;;;;15.02;6.47;;;;;;;;;;5029519;28;20040;-68
2023/09/15 02:39:44;;;;;;;12.88;5.90;;;;;;;;;;5027926;28;20021;-67
2023/09/15 02:42:12;;;;;;;14.90;6.35;;;;;;;;;;5029653;28;20021;-68
2023/09/15 02:44:37;;;;;;;12.07;6.35;;;;;;;;;;5033770;28;20021;-68
2023/09/15 02:47:02;;;;;;;14.55;6.78;;;;;;;;;;5029572;28;20017;-68
2023/09/15 02:49:28;;;;;;;17.02;8.10;;;;;;;;;;5028520;28;20022;-65
2023/09/15 02:51:53;;;;;;;15.57;6.55;;;;;;;;;;5029285;28;20028;-68
2023/09/15 02:54:18;;;;;;;13.20;6.15;;;;;;;;;;5010133;28;20595;-68
2023/09/15 02:56:43;;;;;;;15.10;6.97;;;;;;;;;;5029773;28;20477;-69
2023/09/15 02:59:09;;;;;;;12.80;6.30;;;;;;;;;;5028283;28;20018;-68
2023/09/15 03:01:36;;;;;;;14.80;6.80;;;;;;;;;;5030175;28;20495;-68
2023/09/15 03:04:03;;;;;;;12.23;6.35;;;;;;;;;;5025087;28;20102;-68
2023/09/15 03:06:28;;;;;;;12.00;6.32;;;;;;;;;;5028980;28;20100;-67
2023/09/15 03:08:53;;;;;;;17.73;6.45;;;;;;;;;;5025259;28;20183;-69
2023/09/15 03:11:19;;;;;;;14.32;7.07;;;;;;;;;;5029458;28;20100;-68
2023/09/15 03:13:44;;;;;;;11.63;6.18;;;;;;;;;;5028474;28;20017;-67
2023/09/15 03:16:10;;;;;;;14.52;7.15;;;;;;;;;;5028871;28;20468;-69
2023/09/15 03:18:36;;;;;;;11.52;5.45;;;;;;;;;;5027414;28;20014;-66
2023/09/15 03:21:02;;;;;;;11.70;6.10;;;;;;;;;;5010475;28;20013;-69
2023/09/15 03:23:28;;;;;;;15.27;6.55;;;;;;;;;;5027054;28;20024;-67
2023/09/15 03:26:02;;;;;;;14.63;6.88;;;;;;;;;;5027530;28;20400;-69
2023/09/15 03:28:28;;;;;;;12.50;6.30;;;;;;;;;;5025565;28;20029;-67
2023/09/15 03:30:53;;;;;;;20.05;6.72;;;;;;;;;;5027554;28;20121;-68
2023/09/15 03:33:19;;;;;;;11.73;5.85;;;;;;;;;;5025493;28;20119;-68
2023/09/15 03:35:44;;;;;;;18.80;6.93;;;;;;;;;;5027844;28;20465;-68
2023/09/15 03:38:09;;;;;;;13.85;6.13;;;;;;;;;;5025399;28;20108;-69
2023/09/15 03:40:34;;;;;;;11.80;6.07;;;;;;;;;;5027159;28;20017;-69
2023/09/15 03:43:00;;;;;;;13.18;6.25;;;;;;;;;;5031794;28;20013;-69
2023/09/15 03:45:25;;;;;;;16.80;6.80;;;;;;;;;;5029879;28;20018;-69
2023/09/15 03:47:50;;;;;;;12.50;6.07;;;;;;;;;;5027493;28;20018;-68
2023/09/15 03:50:19;;;;;;;13.35;6.25;;;;;;;;;;5027914;28;20487;-67
2023/09/15 03:52:45;;;;;;;16.17;6.18;;;;;;;;;;5025720;28;20078;-71
2023/09/15 03:55:10;;;;;;;12.30;6.50;;;;;;;;;;5027476;28;20013;-68
2023/09/15 03:57:36;;;;;;;13.55;5.95;;;;;;;;;;5026104;28;20017;-66
2023/09/15 04:00:03;;;;;;;13.60;5.85;;;;;;;;;;5027837;28;20472;-69
2023/09/15 04:02:28;;;;;;;10.43;6.18;;;;;;;;;;5024853;28;20018;-69
2023/09/15 04:04:54;;;;;;;13.02;6.05;;;;;;;;;;5029281;28;20142;-69
2023/09/15 04:07:19;;;;;;;10.35;6.05;;;;;;;;;;5021882;28;20374;-69
2023/09/15 04:09:45;;;;;;;11.30;6.25;;;;;;;;;;5028658;28;20021;-66
2023/09/15 04:12:10;;;;;;;12.10;5.60;;;;;;;;;;5018925;28;20073;-67
2023/09/15 04:14:35;;;;;;;12.48;6.60;;;;;;;;;;5027892;28;20452;-66
2023/09/15 04:17:03;;;;;;;10.45;6.30;;;;;;;;;;5024249;28;20018;-68
2023/09/15 04:19:29;;;;;;;12.18;6.50;;;;;;;;;;5028923;28;20025;-70
2023/09/15 04:21:54;;;;;;;11.45;6.32;;;;;;;;;;5022657;28;20021;-68
2023/09/15 04:24:19;;;;;;;13.93;6.40;;;;;;;;;;5028425;28;20033;-70
2023/09/15 04:26:45;;;;;;;14.95;7.28;;;;;;;;;;5027234;28;20095;-68
2023/09/15 04:29:10;;;;;;;13.98;6.53;;;;;;;;;;5024802;28;20029;-68
2023/09/15 04:31:37;;;;;;;13.02;7.60;;;;;;;;;;5026911;28;20571;-68
2023/09/15 04:34:02;;;;;;;12.60;7.30;;;;;;;;;;5028819;28;20388;-70
2023/09/15 04:36:28;;;;;;;25.02;9.45;;;;;;;;;;5028370;28;20097;-69
2023/09/15 04:38:53;;;;;;;14.52;6.95;;;;;;;;;;5028531;28;20105;-69
2023/09/15 04:41:18;;;;;;;13.40;6.60;;;;;;;;;;5020392;28;20124;-69
2023/09/15 04:43:43;;;;;;;15.88;6.72;;;;;;;;;;5033860;28;20392;-67
2023/09/15 04:46:08;;;;;;;12.75;6.72;;;;;;;;;;5027812;28;20465;-68
2023/09/15 04:48:34;;;;;;;13.88;6.90;;;;;;;;;;5024496;28;20075;-68
2023/09/15 04:50:59;;;;;;;11.63;5.93;;;;;;;;;;5014815;28;20087;-68
2023/09/15 04:53:24;;;;;;;16.55;6.93;;;;;;;;;;5017738;28;20052;-68
2023/09/15 04:55:50;;;;;;;13.45;7.07;;;;;;;;;;5012891;28;20022;-68
2023/09/15 04:58:16;;;;;;;20.58;7.38;;;;;;;;;;5017265;28;20022;-67
2023/09/15 05:00:41;;;;;;;16.38;7.13;;;;;;;;;;5018175;28;20014;-69
2023/09/15 05:03:08;;;;;;;17.52;6.15;;;;;;;;;;5017061;28;20072;-69
2023/09/15 05:05:33;;;;;;;14.48;7.57;;;;;;;;;;5021514;28;20049;-68
2023/09/15 05:07:59;;;;;;;14.80;6.68;;;;;;;;;;5025858;28;20099;-70
2023/09/15 05:10:24;;;;;;;13.75;6.88;;;;;;;;;;5028500;28;20021;-67
2023/09/15 05:12:49;;;;;;;15.38;7.10;;;;;;;;;;5031309;28;20017;-68
2023/09/15 05:15:14;;;;;;;13.70;6.82;;;;;;;;;;5029648;28;20113;-66
2023/09/15 05:17:40;;;;;;;14.00;7.32;;;;;;;;;;5030693;28;20420;-69
2023/09/15 05:20:05;;;;;;;15.82;7.20;;;;;;;;;;5029889;28;20040;-70
2023/09/15 05:22:31;;;;;;;17.10;6.88;;;;;;;;;;5031170;28;20437;-69
2023/09/15 05:24:56;;;;;;;13.25;6.93;;;;;;;;;;5030168;28;20022;-68
2023/09/15 05:27:21;;;;;;;14.25;7.30;;;;;;;;;;5030286;28;20039;-66
2023/09/15 05:29:47;;;;;;;12.18;6.15;;;;;;;;;;5030692;28;20057;-66
2023/09/15 05:32:12;;;;;;;15.07;7.38;;;;;;;;;;5029419;28;20075;-67
2023/09/15 05:34:38;;;;;;;12.98;6.53;;;;;;;;;;5027161;28;20087;-69
2023/09/15 05:37:03;;;;;;;11.65;6.75;;;;;;;;;;5031341;28;20016;-69
2023/09/15 05:39:30;;;;;;;12.85;6.15;;;;;;;;;;5030756;28;20052;-68
2023/09/15 05:41:56;;;;;;;13.60;6.15;;;;;;;;;;5028625;28;20021;-68
2023/09/15 05:44:21;;;;;;;11.88;6.20;;;;;;;;;;5036939;28;20018;-66
2023/09/15 05:46:48;;;;;;;15.20;6.80;;;;;;;;;;5026121;28;20096;-67
2023/09/15 05:49:16;;;;;;;17.63;6.72;;;;;;;;;;5031804;28;20017;-68
2023/09/15 05:51:44;;;;;;;19.30;6.70;;;;;;;;;;5031430;28;20021;-65
2023/09/15 05:54:10;;;;;;;14.20;7.13;;;;;;;;;;5029275;28;20041;-69
2023/09/15 05:56:35;;;;;;;14.20;6.53;;;;;;;;;;5030992;28;20010;-67
2023/09/15 05:59:00;;;;;;;14.35;7.03;;;;;;;;;;5031216;28;20025;-69
2023/09/15 06:01:26;;;;;;;17.15;6.47;;;;;;;;;;5028354;28;20126;-68
2023/09/15 06:03:51;;;;;;;16.75;7.78;;;;;;;;;;5027540;28;20384;-69
2023/09/15 06:06:16;;;;;;;16.80;8.10;;;;;;;;;;5031002;28;20033;-66
2023/09/15 06:08:42;;;;;;;19.20;7.30;;;;;;;;;;5025633;28;20048;-67
2023/09/15 06:11:07;;;;;;;17.95;6.88;;;;;;;;;;5030484;28;20041;-67
2023/09/15 06:13:33;;;;;;;21.02;7.55;;;;;;;;;;5030795;28;20029;-67
2023/09/15 06:15:58;;;;;;;13.30;7.10;;;;;;;;;;5030957;28;20022;-69
2023/09/15 06:18:23;;;;;;;13.65;6.28;;;;;;;;;;5030300;28;20027;-66
2023/09/15 06:20:49;;;;;;;15.82;6.97;;;;;;;;;;5030699;28;20516;-69
2023/09/15 06:23:14;;;;;;;14.95;6.97;;;;;;;;;;5024021;28;20033;-67
2023/09/15 06:25:40;;;;;;;20.42;6.82;;;;;;;;;;5024034;28;20088;-68
2023/09/15 06:28:06;;;;;;;13.65;7.28;;;;;;;;;;5024017;28;20033;-69
2023/09/15 06:30:31;;;;;;;14.98;7.15;;;;;;;;;;5023201;28;20060;-69
2023/09/15 06:32:56;;;;;;;16.67;7.28;;;;;;;;;;5022953;28;20018;-68
2023/09/15 06:35:22;;;;;;;19.55;6.65;;;;;;;;;;5023198;28;20025;-70
2023/09/15 06:37:47;;;;;;;13.35;6.25;;;;;;;;;;5005638;28;20096;-67
2023/09/15 06:40:13;;;;;;;17.20;5.63;;;;;;;;;;5005848;28;20606;-64
2023/09/15 06:42:38;;;;;;;13.95;5.88;;;;;;;;;;5020893;28;20045;-68
2023/09/15 06:45:03;;;;;;;12.32;5.85;;;;;;;;;;5024337;28;20036;-66
2023/09/15 06:47:29;;;;;;;17.00;6.53;;;;;;;;;;5024293;28;20573;-68
2023/09/15 06:49:54;;;;;;;16.02;6.18;;;;;;;;;;5025212;28;20023;-69
2023/09/15 06:52:19;;;;;;;10.48;5.22;;;;;;;;;;5022070;28;20391;-67
2023/09/15 06:54:45;;;;;;;12.10;6.82;;;;;;;;;;5023434;28;20022;-68
2023/09/15 06:57:10;;;;;;;16.48;5.93;;;;;;;;;;5023532;28;20026;-67
2023/09/15 06:59:35;;;;;;;11.95;5.60;;;;;;;;;;5022734;28;20025;-69
2023/09/15 07:02:02;;;;;;;12.48;5.82;;;;;;;;;;5020054;28;20040;-69
2023/09/15 07:04:28;;;;;;;12.95;5.32;;;;;;;;;;5023275;28;20182;-66
2023/09/15 07:06:54;;;;;;;11.10;5.45;;;;;;;;;;5023652;28;20128;-69
2023/09/15 07:09:19;;;;;;;8.70;5.15;;;;;;;;;;5023657;28;21355;-65
2023/09/15 07:11:45;;;;;;;20.70;6.57;;;;;;;;;;5022793;28;20081;-68
2023/09/15 07:14:11;;;;;;;12.15;4.90;;;;;;;;;;5021681;28;20123;-70
2023/09/15 07:16:36;;;;;;;14.40;5.35;;;;;;;;;;5022759;28;20013;-68
2023/09/15 07:19:01;;;;;;;11.43;4.90;;;;;;;;;;5023712;28;20018;-67
2023/09/15 07:21:27;;;;;;;11.23;5.78;;;;;;;;;;5005503;28;20041;-69
2023/09/15 07:23:53;;;;;;;15.25;5.28;;;;;;;;;;5020640;28;20026;-68
2023/09/15 07:26:18;;;;;;;10.35;4.82;;;;;;;;;;5022375;28;20021;-66
2023/09/15 07:28:44;;;;;;;10.93;4.28;;;;;;;;;;5021719;28;21568;-69
2023/09/15 07:31:09;;;;;;;12.85;4.70;;;;;;;;;;5022450;28;20020;-67
2023/09/15 07:33:35;;;;;;;9.38;4.40;;;;;;;;;;5019807;28;20073;-69
2023/09/15 07:36:00;;;;;;;8.27;4.63;;;;;;;;;;5021196;28;20014;-69
2023/09/15 07:38:26;;;;;;;19.73;4.70;;;;;;;;;;5022794;28;20030;-68
2023/09/15 07:40:51;;;;;;;14.10;5.03;;;;;;;;;;5022761;28;20163;-68
2023/09/15 07:43:16;;;;;;;10.63;4.20;;;;;;;;;;5015063;28;20153;-67
2023/09/15 07:45:41;;;;;;;8.90;3.92;;;;;;;;;;5022268;28;20048;-68
2023/09/15 07:48:07;;;;;;;8.60;3.60;;;;;;;;;;5020700;28;20013;-66
2023/09/15 07:50:33;;;;;;;8.57;4.20;;;;;;;;;;5020313;28;20015;-68
2023/09/15 07:52:58;;;;;;;9.57;4.28;;;;;;;;;;5018075;28;20159;-69
2023/09/15 07:55:24;;;;;;;11.55;3.67;;;;;;;;;;5024347;28;20108;-70
2023/09/15 07:57:49;;;;;;;8.60;3.92;;;;;;;;;;5026803;28;20132;-69
2023/09/15 08:00:15;;;;;;;9.57;4.00;;;;;;;;;;5021927;28;20096;-69
2023/09/15 08:02:40;;;;;;;10.73;3.90;;;;;;;;;;5026831;28;20727;-70
2023/09/15 08:05:06;;;;;;;14.77;4.57;;;;;;;;;;5026096;28;20033;-67
2023/09/15 08:07:31;;;;;;;10.35;3.88;;;;;;;;;;5025150;28;20032;-68
2023/09/15 08:09:56;;;;;;;10.25;3.40;;;;;;;;;;5021482;28;20017;-68
2023/09/15 08:12:23;;;;;;;11.82;4.47;;;;;;;;;;5025940;28;20480;-69
2023/09/15 08:14:49;;;;;;;8.32;3.80;;;;;;;;;;5027742;28;20041;-69
2023/09/15 08:17:14;;;;;;;8.68;3.78;;;;;;;;;;5024856;28;20017;-69
2023/09/15 08:19:39;;;;;;;8.40;4.03;;;;;;;;;;5026580;28;20662;-68
2023/09/15 08:22:05;;;;;;;8.93;3.80;;;;;;;;;;5029837;28;20532;-69
2023/09/15 08:24:30;;;;;;;13.00;7.15;;;;;;;;;;5025471;28;20030;-68
2023/09/15 08:26:55;;;;;;;12.63;4.15;;;;;;;;;;5030074;28;20068;-69
2023/09/15 08:29:21;;;;;;;13.85;4.65;;;;;;;;;;5027903;28;20017;-66
2023/09/15 08:31:46;;;;;;;6.50;3.40;;;;;;;;;;5023368;28;20020;-66
2023/09/15 08:34:12;;;;;;;10.60;3.90;;;;;;;;;;5029738;28;20710;-70
2023/09/15 08:36:37;;;;;;;7.80;3.90;;;;;;;;;;5030349;28;20037;-67
2023/09/15 08:39:03;;;;;;;9.02;3.20;;;;;;;;;;5030293;28;20049;-69
2023/09/15 08:41:52;;;;;;;13.80;4.00;;;;;;;;;;5031885;28;20041;-66
2023/09/15 08:44:18;;;;;;;9.65;3.38;;;;;;;;;;5034385;28;20021;-68
2023/09/15 08:46:43;;;;;;;7.72;3.55;;;;;;;;;;5025043;28;20162;-67
2023/09/15 08:49:09;;;;;;;15.00;4.50;;;;;;;;;;5027034;28;20070;-66
2023/09/15 08:51:34;;;;;;;15.35;5.15;;;;;;;;;;5032424;28;20052;-69
2023/09/15 08:54:01;;;;;;;15.27;5.60;;;;;;;;;;5033225;28;20028;-68
2023/09/15 08:56:26;;;;;;;9.73;4.22;;;;;;;;;;5012590;28;20370;-68
2023/09/15 08:58:52;;;;;;;9.55;3.78;;;;;;;;;;5032485;28;20151;-67
2023/09/15 09:01:18;;;;;;;8.32;3.70;;;;;;;;;;5027843;28;20017;-69
2023/09/15 09:03:43;;;;;;;12.63;4.15;;;;;;;;;;5031925;28;20009;-68
2023/09/15 09:06:10;;;;;;;8.68;3.88;;;;;;;;;;5026877;28;20022;-66
2023/09/15 09:08:36;;;;;;;9.07;3.47;;;;;;;;;;5029859;28;20018;-68
2023/09/15 09:11:03;;;;;;;8.57;3.67;;;;;;;;;;5032195;28;20010;-69
2023/09/15 09:13:28;;;;;;;7.53;3.58;;;;;;;;;;5032315;28;20028;-66
2023/09/15 09:15:53;;;;;;;8.98;3.70;;;;;;;;;;5031929;28;20009;-69
2023/09/15 09:18:18;;;;;;;12.20;3.97;;;;;;;;;;5028514;28;20014;-66
2023/09/15 09:20:44;;;;;;;10.68;4.25;;;;;;;;;;5032704;28;20013;-67
2023/09/15 09:23:10;;;;;;;12.77;4.47;;;;;;;;;;5032617;28;20021;-67
2023/09/15 09:25:35;;;;;;;9.77;3.85;;;;;;;;;;5014486;28;20046;-67
2023/09/15 09:28:01;;;;;;;8.52;3.60;;;;;;;;;;5032585;28;20017;-66
2023/09/15 09:30:29;;;;;;;12.52;4.07;;;;;;;;;;5026123;28;20038;-68
2023/09/15 09:32:57;;;;;;;8.82;3.55;;;;;;;;;;5024882;28;20527;-71
2023/09/15 09:35:22;;;;;;;;;;;;;;;;;;5031714;28;20025;-68
2023/09/15 09:37:48;;;;;;;9.25;3.55;;;;;;;;;;5031975;28;19905;-68
2023/09/15 09:40:14;;;;;;;9.95;3.60;;;;;;;;;;5008961;28;20129;-67
2023/09/15 09:42:41;;;;;;;14.00;4.00;;;;;;;;;;5031063;28;20420;-67
2023/09/15 09:45:07;;;;;;;14.75;4.10;;;;;;;;;;5009203;28;20515;-68
2023/09/15 09:47:32;;;;;;;8.63;3.67;;;;;;;;;;5028469;28;20041;-67
2023/09/15 09:49:57;;;;;;;12.18;3.50;;;;;;;;;;5031843;28;20396;-68
2023/09/15 09:52:23;;;;;;;9.90;3.80;;;;;;;;;;5031599;28;20047;-68
2023/09/15 09:54:49;;;;;;;6.88;3.40;;;;;;;;;;5025076;28;20040;-65
2023/09/15 09:57:15;;;;;;;6.32;3.22;;;;;;;;;;5031541;28;20092;-67
2023/09/15 09:59:42;;;;;;;7.28;3.83;;;;;;;;;;5030810;28;20052;-66
2023/09/15 10:02:07;;;;;;;6.30;3.15;;;;;;;;;;5027701;28;20549;-69
2023/09/15 10:04:33;;;;;;;8.43;3.83;;;;;;;;;;5027593;28;20033;-69
2023/09/15 10:06:59;;;;;;;7.65;3.50;;;;;;;;;;5022732;28;20032;-65
2023/09/15 10:09:24;;;;;;;7.60;3.22;;;;;;;;;;5031037;28;20021;-70
2023/09/15 10:11:49;;;;;;;5.95;3.22;;;;;;;;;;5021441;28;20101;-68
2023/09/15 10:14:15;;;;;;;18.77;3.75;;;;;;;;;;5026157;28;20072;-68
2023/09/15 10:16:41;;;;;;;8.10;3.55;;;;;;;;;;5029959;28;20075;-69
2023/09/15 10:19:06;;;;;;;7.43;3.42;;;;;;;;;;5027102;28;20018;-69
2023/09/15 10:21:34;;;;;;;7.65;3.22;;;;;;;;;;5030549;28;20140;-68
2023/09/15 10:24:09;;;;;;;7.17;3.33;;;;;;;;;;5025619;28;20022;-68
2023/09/15 10:26:37;;;;;;;11.18;3.28;;;;;;;;;;5029729;28;20029;-67
2023/09/15 10:29:03;;;;;;;15.67;3.03;;;;;;;;;;5024186;28;20104;-66
2023/09/15 10:31:29;;;;;;;7.25;3.72;;;;;;;;;;5030405;28;20022;-68
2023/09/15 10:33:58;;;;;;;8.80;3.60;;;;;;;;;;5021979;28;20372;-70
2023/09/15 10:36:23;;;;;;;8.95;3.33;;;;;;;;;;5030356;28;20472;-67
2023/09/15 10:38:49;;;;;;;9.50;3.97;;;;;;;;;;5026968;28;20131;-70
2023/09/15 10:41:30;;;;;;;10.38;3.28;;;;;;;;;;5012759;28;20167;-69
2023/09/15 10:43:55;;;;;;;9.43;3.42;;;;;;;;;;5026301;28;20028;-69
2023/09/15 10:46:21;;;;;;;9.55;3.40;;;;;;;;;;5022705;28;20017;-69
2023/09/15 10:48:47;;;;;;;5.82;3.35;;;;;;;;;;5012689;28;20112;-68
2023/09/15 10:51:16;;;;;;;11.60;4.25;;;;;;;;;;5027512;28;20021;-67
2023/09/15 10:53:42;;;;;;;10.18;3.35;;;;;;;;;;5047382;23;20064;-71
2023/09/15 10:56:07;;;;;;;11.50;3.97;;;;;;;;;;5024829;28;20018;-69
2023/09/15 10:58:33;;;;;;;10.02;3.47;;;;;;;;;;5017666;28;20505;-68
2023/09/15 11:00:58;;;;;;;9.52;3.80;;;;;;;;;;5025001;28;20017;-70
2023/09/15 11:03:24;;;;;;;7.90;3.92;;;;;;;;;;5025294;28;20036;-71
2023/09/15 11:05:49;;;;;;;9.40;3.20;;;;;;;;;;5023869;28;20395;-70
2023/09/15 11:08:15;;;;;;;8.85;3.50;;;;;;;;;;5024332;28;20104;-68
2023/09/15 11:10:42;;;;;;;9.80;3.35;;;;;;;;;;5018664;28;20437;-71
2023/09/15 11:13:08;;;;;;;7.60;3.17;;;;;;;;;;5025054;28;20018;-70
2023/09/15 11:15:33;;;;;;;6.70;3.38;;;;;;;;;;5026507;28;20080;-72
2023/09/15 11:17:58;;;;;;;7.53;2.92;;;;;;;;;;5006811;28;20022;-70
2023/09/15 11:20:23;;;;;;;8.90;3.30;;;;;;;;;;5027674;28;20143;-69
2023/09/15 11:22:55;;;;;;;5.53;2.95;;;;;;;;;;5022355;28;20425;-70
2023/09/15 11:25:20;;;;;;;7.80;3.22;;;;;;;;;;5015079;28;20032;-69
2023/09/15 11:27:46;;;;;;;11.48;3.38;;;;;;;;;;5003875;28;20104;-71
2023/09/15 11:30:12;;;;;;;7.20;2.97;;;;;;;;;;5028288;28;20120;-67
2023/09/15 11:32:37;;;;;;;6.22;3.42;;;;;;;;;;5028005;28;20022;-71
2023/09/15 11:35:09;;;;;;;6.05;3.03;;;;;;;;;;5023857;28;20076;-70
2023/09/15 11:37:34;;;;;;;12.07;3.13;;;;;;;;;;5025292;28;20101;-71
2023/09/15 11:40:00;;;;;;;9.43;3.22;;;;;;;;;;5019147;28;20415;-71
2023/09/15 11:42:25;;;;;;;6.70;2.97;;;;;;;;;;5023254;28;20040;-69
2023/09/15 11:44:50;;;;;;;8.70;3.30;;;;;;;;;;5027513;28;20435;-69
2023/09/15 11:47:16;;;;;;;6.00;2.80;;;;;;;;;;5026978;28;20029;-72
2023/09/15 11:49:42;;;;;;;9.35;3.10;;;;;;;;;;5021492;28;20024;-72
2023/09/15 11:52:07;;;;;;;7.05;2.92;;;;;;;;;;5021967;28;20013;-69
2023/09/15 11:54:33;;;;;;;18.13;3.03;;;;;;;;;;5023536;28;20104;-69
2023/09/15 11:56:59;;;;;;;7.38;2.70;;;;;;;;;;5027559;28;20028;-71
2023/09/15 11:59:24;;;;;;;4.97;2.60;;;;;;;;;;5001365;28;20014;-69
2023/09/15 12:01:52;;;;;;;8.07;2.97;;;;;;;;;;5023237;28;20372;-70
2023/09/15 12:04:18;;;;;;;10.07;2.80;;;;;;;;;;5021542;28;20025;-70
2023/09/15 12:06:45;;;;;;;7.57;3.10;;;;;;;;;;5026534;28;20021;-70
2023/09/15 12:09:12;;;;;;;8.68;3.20;;;;;;;;;;5020230;28;20053;-68
2023/09/15 12:11:41;;;;;;;5.35;2.60;;;;;;;;;;5027150;28;20017;-72
2023/09/15 12:14:07;;;;;;;6.32;2.35;;;;;;;;;;5030050;28;20036;-70
2023/09/15 12:16:32;;;;;;;7.05;2.72;;;;;;;;;;5030848;28;20013;-69
2023/09/15 12:18:58;;;;;;;5.00;2.40;;;;;;;;;;5029679;28;20097;-71
2023/09/15 12:21:28;;;;;;;5.40;2.47;;;;;;;;;;5031190;28;20021;-72
2023/09/15 12:23:56;;;;;;;10.30;2.60;;;;;;;;;;5033078;28;20077;-67
2023/09/15 12:26:21;;;;;;;;;;;;;;;;;;5034244;28;20028;-70
2023/09/15 12:28:47;;;;;;;9.05;4.07;;;;;;;;;;5025802;28;19909;-71
2023/09/15 12:31:20;;;;;;;8.80;2.40;;;;;;;;;;5028091;28;20018;-71
2023/09/15 12:33:45;;;;;;;7.90;2.58;;;;;;;;;;5031367;28;20014;-71
2023/09/15 12:36:12;;;;;;;6.43;2.28;;;;;;;;;;5028766;28;20018;-69
2023/09/15 12:38:38;;;;;;;6.32;2.70;;;;;;;;;;5012195;28;20045;-71
2023/09/15 12:41:04;;;;;;;10.73;2.85;;;;;;;;;;5025525;28;20064;-70
2023/09/15 12:43:29;;;;;;;8.93;3.08;;;;;;;;;;5034931;28;20084;-71
2023/09/15 12:45:54;;;;;;;6.20;2.50;;;;;;;;;;5026155;28;20033;-68
2023/09/15 12:48:19;;;;;;;6.40;2.55;;;;;;;;;;5007656;28;20251;-70
2023/09/15 12:50:45;;;;;;;5.37;2.33;;;;;;;;;;5032223;28;20672;-70
2023/09/15 12:53:11;;;;;;;4.85;2.58;;;;;;;;;;5027814;28;20267;-71
2023/09/15 12:55:36;;;;;;;9.45;2.35;;;;;;;;;;5030136;28;20095;-68
2023/09/15 12:58:01;;;;;;;7.93;2.47;;;;;;;;;;5024353;28;20013;-70
2023/09/15 13:00:26;;;;;;;11.43;2.78;;;;;;;;;;5031472;28;20037;-69
2023/09/15 13:02:51;;;;;;;7.45;2.40;;;;;;;;;;5028040;28;20603;-71
2023/09/15 13:05:17;;;;;;;7.25;2.90;;;;;;;;;;5029532;28;20046;-71
2023/09/15 13:07:43;;;;;;;6.63;2.83;;;;;;;;;;5023729;28;20086;-68
2023/09/15 13:10:10;;;;;;;4.93;2.45;;;;;;;;;;5026296;28;20013;-71
2023/09/15 13:12:35;;;;;;;10.95;2.88;;;;;;;;;;5022326;28;20017;-68
2023/09/15 13:15:01;;;;;;;8.05;2.20;;;;;;;;;;5033425;28;20067;-71
2023/09/15 13:17:26;;;;;;;9.50;2.63;;;;;;;;;;5030147;28;20094;-69
2023/09/15 13:19:52;;;;;;;8.40;2.60;;;;;;;;;;5026760;28;20104;-69
2023/09/15 13:22:18;;;;;;;8.88;2.60;;;;;;;;;;5026597;28;20116;-71
2023/09/15 13:24:43;;;;;;;10.32;3.00;;;;;;;;;;5021951;28;20017;-71
2023/09/15 13:27:08;;;;;;;7.72;2.33;;;;;;;;;;5030820;28;20021;-71
2023/09/15 13:29:34;;;;;;;12.18;2.28;;;;;;;;;;5030205;28;20025;-71
2023/09/15 13:31:59;;;;;;;8.35;2.30;;;;;;;;;;5024699;28;20017;-71
2023/09/15 13:34:25;;;;;;;5.93;2.50;;;;;;;;;;5029830;28;20559;-68
2023/09/15 13:36:50;;;;;;;6.72;2.50;;;;;;;;;;5022861;28;20320;-71
2023/09/15 13:39:15;;;;;;;5.25;2.45;;;;;;;;;;5025908;28;20104;-70
2023/09/15 13:41:41;;;;;;;6.75;2.20;;;;;;;;;;5027754;28;20380;-70
2023/09/15 13:44:06;;;;;;;5.40;2.17;;;;;;;;;;5025493;28;20475;-72
2023/09/15 13:46:36;;;;;;;4.78;2.38;;;;;;;;;;5020158;28;20074;-67
2023/09/15 13:49:01;;;;;;;8.52;2.33;;;;;;;;;;5022367;28;20087;-68
2023/09/15 13:51:26;;;;;;;5.53;2.42;;;;;;;;;;5027390;28;20069;-70
2023/09/15 13:53:51;;;;;;;6.03;2.42;;;;;;;;;;5030055;28;20024;-68
2023/09/15 13:56:17;;;;;;;7.72;2.63;;;;;;;;;;5028992;28;20017;-72
2023/09/15 13:58:42;;;;;;;7.75;2.47;;;;;;;;;;5010806;28;20013;-68
2023/09/15 14:01:07;;;;;;;9.70;2.47;;;;;;;;;;5017110;28;20044;-72
2023/09/15 14:03:33;;;;;;;6.05;2.42;;;;;;;;;;5025301;28;20025;-70
2023/09/15 14:05:58;;;;;;;8.60;2.20;;;;;;;;;;5023883;28;20080;-72
2023/09/15 14:08:24;;;;;;;4.30;2.28;;;;;;;;;;5026251;28;20025;-72
2023/09/15 14:10:50;;;;;;;5.97;1.95;;;;;;;;;;5026558;28;20140;-72
2023/09/15 14:13:15;;;;;;;6.80;2.00;;;;;;;;;;5007953;28;20506;-70
2023/09/15 14:15:42;;;;;;;4.97;2.08;;;;;;;;;;5020379;28;20018;-69
2023/09/15 14:18:07;;;;;;;5.05;2.47;;;;;;;;;;5024564;28;20032;-71
2023/09/15 14:20:33;;;;;;;6.40;2.63;;;;;;;;;;5017805;28;20654;-70
2023/09/15 14:22:58;;;;;;;7.57;2.58;;;;;;;;;;5011132;28;20039;-70
2023/09/15 14:25:23;;;;;;;7.90;2.20;;;;;;;;;;5027601;28;20021;-68
2023/09/15 14:27:48;;;;;;;5.45;1.67;;;;;;;;;;5029528;28;20603;-71